AV - LB | Pilotos de la V.A




 METAR AND TAF INFORMATION
METAR FOR ROAH
ADDS - METARS form results

(0316 UTC 19 May 2021)
Data provider http://aviationweather.gov/metar/data/
 
METAR text: ROAH 190300Z 18010KT 9999 FEW008 SCT200 29/26 Q1012
Conditions at: ROAH (NAHA (CIV/JASDF), JP) observed 0300 UTC 19 May 2021
Temperature: 29.0°C (84°F)
Dewpoint: 26.0°C (79°F) [RH = 84%]
Pressure (altimeter): 29.88 inches Hg (1012.0 mb)
Winds: from the S (180 degrees) at 12 MPH (10 knots; 5.1 m/s)
Visibility: 6 or more miles (10+ km)
Ceiling: at least 12,000 feet AGL
Clouds: few clouds at 800 feet AGL
scattered clouds at 20000 feet AGL
Weather: no significant weather observed at this time

METAR text: ROAH 190230Z 18012KT 9999 FEW008 BKN200 28/25 Q1012
Conditions at: ROAH (NAHA (CIV/JASDF), JP) observed 0230 UTC 19 May 2021
Temperature: 28.0°C (82°F)
Dewpoint: 25.0°C (77°F) [RH = 84%]
Pressure (altimeter): 29.88 inches Hg (1012.0 mb)
Winds: from the S (180 degrees) at 14 MPH (12 knots; 6.2 m/s)
Visibility: 6 or more miles (10+ km)
Ceiling: 20000 feet AGL
Clouds: few clouds at 800 feet AGL
broken clouds at 20000 feet AGL
Weather: no significant weather observed at this time

Forecast for: ROAH (NAHA (CIV/JASDF), JP)
Text: TAF ROAH 182306Z 1900/2006 19014KT 9999 FEW010 SCT020
Forecast period: 0000 UTC 19 May 2021 to 0600 UTC 20 May 2021
Forecast type: FROM: standard forecast or significant change
Winds: from the S (190 degrees) at 16 MPH (14 knots; 7.2 m/s)
Visibility: 6 or more miles (10+ km)
Ceiling: at least 12,000 feet AGL
Clouds: few clouds at 1000 feet AGL
scattered clouds at 2000 feet AGL
Weather: no significant weather forecast for this period
Text: TEMPO 1912/2000 FEW005 BKN008
Forecast period: 1200 UTC 19 May 2021 to 0000 UTC 20 May 2021
Forecast type: TEMPORARY: The following changes expected for less than half the time period
Visibility: missing
Ceiling: 800 feet AGL
Clouds: few clouds at 500 feet AGL
broken clouds at 800 feet AGL
Weather: no significant weather forecast for this period

 AIRPORT MAP

 RUNWAY INFORMATION
Runway 18 Runway length 9840 ft Runway width 150 ft
Runway elevation 11 ft Runway displaced threshold 138 ft Runway heading 178
Runway 36 Runway length 9840 ft Runway width 150 ft
Runway elevation 9 ft Runway displaced threshold 0 ft Runway heading 358

 AIRPORT FREQUENCIES
Type A/G Name CENTRAL WE Frequency 126.9 MHZ
Type ATIS Name ATIS Frequency 127.8 MHZ
Type CLD Name CLNC DEL Frequency 122.075 MHZ
Type GND Name GND Frequency 121.8 MHZ
Type TWR Name TWR Frequency 118.1 MHZ

 AIRPORT NEAR NAVIGATION AIDS
Type VORTAC Name Naha Frequency 116500 KHZ
Type NDB Name Okinawa Frequency 308 KHZ